sensor_id;sensor_type;location;lat;lon;timestamp;temperature;humidity
18823;DHT22;9540;51.550;7.980;2022-07-29T00:00:46;16.80;99.90
18823;DHT22;9540;51.550;7.980;2022-07-29T00:03:13;16.70;99.90
18823;DHT22;9540;51.550;7.980;2022-07-29T00:05:41;16.80;99.90
18823;DHT22;9540;51.550;7.980;2022-07-29T00:08:08;16.80;99.90
18823;DHT22;9540;51.550;7.980;2022-07-29T00:10:35;16.80;99.90
18823;DHT22;9540;51.550;7.980;2022-07-29T00:13:02;16.70;99.90
18823;DHT22;9540;51.550;7.980;2022-07-29T00:15:30;16.70;99.90
18823;DHT22;9540;51.550;7.980;2022-07-29T00:17:58;16.70;99.90
18823;DHT22;9540;51.550;7.980;2022-07-29T00:20:25;16.70;99.90
18823;DHT22;9540;51.550;7.980;2022-07-29T00:22:52;16.70;99.90
18823;DHT22;9540;51.550;7.980;2022-07-29T00:25:18;16.70;99.90
18823;DHT22;9540;51.550;7.980;2022-07-29T00:27:45;16.70;99.90
18823;DHT22;9540;51.550;7.980;2022-07-29T00:30:13;16.70;99.90
18823;DHT22;9540;51.550;7.980;2022-07-29T00:32:41;16.60;99.90
18823;DHT22;9540;51.550;7.980;2022-07-29T00:35:09;16.60;99.90
18823;DHT22;9540;51.550;7.980;2022-07-29T00:37:53;16.60;99.90
18823;DHT22;9540;51.550;7.980;2022-07-29T00:40:21;16.60;99.90
18823;DHT22;9540;51.550;7.980;2022-07-29T00:42:48;16.60;99.90
18823;DHT22;9540;51.550;7.980;2022-07-29T00:45:17;16.50;99.90
18823;DHT22;9540;51.550;7.980;2022-07-29T00:47:45;16.50;99.90
18823;DHT22;9540;51.550;7.980;2022-07-29T00:50:13;16.50;99.90
18823;DHT22;9540;51.550;7.980;2022-07-29T00:52:41;16.50;99.90
18823;DHT22;9540;51.550;7.980;2022-07-29T00:55:11;16.50;99.90
18823;DHT22;9540;51.550;7.980;2022-07-29T00:57:40;16.40;99.90
18823;DHT22;9540;51.550;7.980;2022-07-29T01:00:10;16.40;99.90
18823;DHT22;9540;51.550;7.980;2022-07-29T01:02:38;16.40;99.90
18823;DHT22;9540;51.550;7.980;2022-07-29T01:05:07;16.30;99.90
18823;DHT22;9540;51.550;7.980;2022-07-29T01:07:36;16.30;99.90
18823;DHT22;9540;51.550;7.980;2022-07-29T01:10:04;16.20;99.90
18823;DHT22;9540;51.550;7.980;2022-07-29T01:12:34;16.20;99.90
18823;DHT22;9540;51.550;7.980;2022-07-29T01:15:05;16.20;99.90
18823;DHT22;9540;51.550;7.980;2022-07-29T01:17:36;16.10;99.90
18823;DHT22;9540;51.550;7.980;2022-07-29T01:20:10;16.10;99.90
18823;DHT22;9540;51.550;7.980;2022-07-29T01:28:49;16.00;99.90
18823;DHT22;9540;51.550;7.980;2022-07-29T01:31:22;15.90;99.90
18823;DHT22;9540;51.550;7.980;2022-07-29T01:33:57;15.80;99.90
18823;DHT22;9540;51.550;7.980;2022-07-29T01:36:30;15.80;99.90
18823;DHT22;9540;51.550;7.980;2022-07-29T01:39:02;15.80;99.90
18823;DHT22;9540;51.550;7.980;2022-07-29T01:41:33;15.70;99.90
18823;DHT22;9540;51.550;7.980;2022-07-29T01:44:10;15.70;99.90
18823;DHT22;9540;51.550;7.980;2022-07-29T01:46:41;15.60;99.90
18823;DHT22;9540;51.550;7.980;2022-07-29T01:49:13;15.60;99.90
18823;DHT22;9540;51.550;7.980;2022-07-29T01:51:45;15.50;99.90
18823;DHT22;9540;51.550;7.980;2022-07-29T01:54:16;15.50;99.90
18823;DHT22;9540;51.550;7.980;2022-07-29T01:56:45;15.40;99.90
18823;DHT22;9540;51.550;7.980;2022-07-29T01:59:16;15.40;99.90
18823;DHT22;9540;51.550;7.980;2022-07-29T02:01:45;15.30;99.90
18823;DHT22;9540;51.550;7.980;2022-07-29T02:04:15;15.20;99.90
18823;DHT22;9540;51.550;7.980;2022-07-29T02:06:44;15.10;99.90
18823;DHT22;9540;51.550;7.980;2022-07-29T02:09:13;15.00;99.90
18823;DHT22;9540;51.550;7.980;2022-07-29T02:11:49;15.00;99.90
18823;DHT22;9540;51.550;7.980;2022-07-29T02:14:20;15.00;99.90
18823;DHT22;9540;51.550;7.980;2022-07-29T02:16:50;15.00;99.90
18823;DHT22;9540;51.550;7.980;2022-07-29T02:19:21;15.00;99.90
18823;DHT22;9540;51.550;7.980;2022-07-29T02:21:49;15.00;99.90
18823;DHT22;9540;51.550;7.980;2022-07-29T02:24:18;15.00;99.90
18823;DHT22;9540;51.550;7.980;2022-07-29T02:26:45;15.00;99.90
18823;DHT22;9540;51.550;7.980;2022-07-29T02:29:15;15.00;99.90
18823;DHT22;9540;51.550;7.980;2022-07-29T02:31:46;14.90;99.90
18823;DHT22;9540;51.550;7.980;2022-07-29T02:34:14;14.90;99.90
18823;DHT22;9540;51.550;7.980;2022-07-29T02:36:43;14.80;99.90
18823;DHT22;9540;51.550;7.980;2022-07-29T02:39:11;14.80;99.90
18823;DHT22;9540;51.550;7.980;2022-07-29T02:41:42;14.80;99.90
18823;DHT22;9540;51.550;7.980;2022-07-29T02:44:12;14.80;99.90
18823;DHT22;9540;51.550;7.980;2022-07-29T02:46:50;14.80;99.90
18823;DHT22;9540;51.550;7.980;2022-07-29T02:49:29;14.70;99.90
18823;DHT22;9540;51.550;7.980;2022-07-29T02:52:01;14.70;99.90
18823;DHT22;9540;51.550;7.980;2022-07-29T02:54:33;14.70;99.90
18823;DHT22;9540;51.550;7.980;2022-07-29T02:57:15;14.70;99.90
18823;DHT22;9540;51.550;7.980;2022-07-29T02:59:45;14.70;99.90
18823;DHT22;9540;51.550;7.980;2022-07-29T03:02:16;14.70;99.90
18823;DHT22;9540;51.550;7.980;2022-07-29T03:04:44;14.70;99.90
18823;DHT22;9540;51.550;7.980;2022-07-29T03:07:15;14.70;99.90
18823;DHT22;9540;51.550;7.980;2022-07-29T03:09:45;14.70;99.90
18823;DHT22;9540;51.550;7.980;2022-07-29T03:12:14;14.80;99.90
18823;DHT22;9540;51.550;7.980;2022-07-29T03:14:41;14.90;99.90
18823;DHT22;9540;51.550;7.980;2022-07-29T03:17:09;15.00;99.90
18823;DHT22;9540;51.550;7.980;2022-07-29T03:19:39;15.00;99.90
18823;DHT22;9540;51.550;7.980;2022-07-29T03:22:06;15.00;99.90
18823;DHT22;9540;51.550;7.980;2022-07-29T03:24:35;15.10;99.90
18823;DHT22;9540;51.550;7.980;2022-07-29T03:27:03;15.10;99.90
18823;DHT22;9540;51.550;7.980;2022-07-29T03:29:31;15.10;99.90
18823;DHT22;9540;51.550;7.980;2022-07-29T03:31:58;15.10;99.90
18823;DHT22;9540;51.550;7.980;2022-07-29T03:34:25;15.20;99.90
18823;DHT22;9540;51.550;7.980;2022-07-29T03:36:53;15.20;99.90
18823;DHT22;9540;51.550;7.980;2022-07-29T03:39:23;15.10;99.90
18823;DHT22;9540;51.550;7.980;2022-07-29T03:41:55;15.10;99.90
18823;DHT22;9540;51.550;7.980;2022-07-29T03:44:23;15.10;99.90
18823;DHT22;9540;51.550;7.980;2022-07-29T03:46:52;15.20;99.90
18823;DHT22;9540;51.550;7.980;2022-07-29T03:49:22;15.20;99.90
18823;DHT22;9540;51.550;7.980;2022-07-29T03:51:50;15.20;99.90
18823;DHT22;9540;51.550;7.980;2022-07-29T03:54:18;15.10;99.90
18823;DHT22;9540;51.550;7.980;2022-07-29T03:56:46;15.00;99.90
18823;DHT22;9540;51.550;7.980;2022-07-29T03:59:15;15.00;99.90
18823;DHT22;9540;51.550;7.980;2022-07-29T04:01:45;14.80;99.90
18823;DHT22;9540;51.550;7.980;2022-07-29T04:04:12;14.70;99.90
18823;DHT22;9540;51.550;7.980;2022-07-29T04:06:40;14.70;99.90
18823;DHT22;9540;51.550;7.980;2022-07-29T04:09:08;14.60;99.90
18823;DHT22;9540;51.550;7.980;2022-07-29T04:11:36;14.60;99.90
18823;DHT22;9540;51.550;7.980;2022-07-29T04:14:04;14.60;99.90
18823;DHT22;9540;51.550;7.980;2022-07-29T04:16:32;14.60;99.90
18823;DHT22;9540;51.550;7.980;2022-07-29T04:18:59;14.60;99.90
18823;DHT22;9540;51.550;7.980;2022-07-29T04:21:26;14.70;99.90
18823;DHT22;9540;51.550;7.980;2022-07-29T04:23:53;14.70;99.90
18823;DHT22;9540;51.550;7.980;2022-07-29T04:26:20;14.80;99.90
18823;DHT22;9540;51.550;7.980;2022-07-29T04:28:48;14.80;99.90
18823;DHT22;9540;51.550;7.980;2022-07-29T04:31:15;14.90;99.90
18823;DHT22;9540;51.550;7.980;2022-07-29T04:33:42;14.90;99.90
18823;DHT22;9540;51.550;7.980;2022-07-29T04:36:09;15.00;99.90
18823;DHT22;9540;51.550;7.980;2022-07-29T04:38:38;15.00;99.90
18823;DHT22;9540;51.550;7.980;2022-07-29T04:41:05;15.00;99.90
18823;DHT22;9540;51.550;7.980;2022-07-29T04:43:32;15.00;99.90
18823;DHT22;9540;51.550;7.980;2022-07-29T04:46:01;15.00;99.90
18823;DHT22;9540;51.550;7.980;2022-07-29T04:48:28;15.00;99.90
18823;DHT22;9540;51.550;7.980;2022-07-29T04:50:55;15.00;99.90
18823;DHT22;9540;51.550;7.980;2022-07-29T04:53:22;15.00;99.90
18823;DHT22;9540;51.550;7.980;2022-07-29T04:55:49;15.00;99.90
18823;DHT22;9540;51.550;7.980;2022-07-29T04:58:16;15.10;99.90
18823;DHT22;9540;51.550;7.980;2022-07-29T05:00:43;15.20;99.90
18823;DHT22;9540;51.550;7.980;2022-07-29T05:03:12;15.20;99.90
18823;DHT22;9540;51.550;7.980;2022-07-29T05:05:39;15.30;99.90
18823;DHT22;9540;51.550;7.980;2022-07-29T05:08:06;15.30;99.90
18823;DHT22;9540;51.550;7.980;2022-07-29T05:10:33;15.30;99.90
18823;DHT22;9540;51.550;7.980;2022-07-29T05:13:04;15.40;99.90
18823;DHT22;9540;51.550;7.980;2022-07-29T05:15:31;15.50;99.90
18823;DHT22;9540;51.550;7.980;2022-07-29T05:17:58;15.60;99.90
18823;DHT22;9540;51.550;7.980;2022-07-29T05:20:27;15.60;99.90
18823;DHT22;9540;51.550;7.980;2022-07-29T05:22:55;15.70;99.90
18823;DHT22;9540;51.550;7.980;2022-07-29T05:25:22;15.70;99.90
18823;DHT22;9540;51.550;7.980;2022-07-29T05:27:50;15.80;99.90
18823;DHT22;9540;51.550;7.980;2022-07-29T05:30:17;15.80;99.90
18823;DHT22;9540;51.550;7.980;2022-07-29T05:32:44;15.80;99.90
18823;DHT22;9540;51.550;7.980;2022-07-29T05:35:12;15.90;99.90
18823;DHT22;9540;51.550;7.980;2022-07-29T05:37:41;15.90;99.90
18823;DHT22;9540;51.550;7.980;2022-07-29T05:40:08;15.90;99.90
18823;DHT22;9540;51.550;7.980;2022-07-29T05:42:35;15.90;99.90
18823;DHT22;9540;51.550;7.980;2022-07-29T05:45:03;16.00;99.90
18823;DHT22;9540;51.550;7.980;2022-07-29T05:47:31;16.00;99.90
18823;DHT22;9540;51.550;7.980;2022-07-29T05:49:57;16.00;99.90
18823;DHT22;9540;51.550;7.980;2022-07-29T05:52:24;16.00;99.90
18823;DHT22;9540;51.550;7.980;2022-07-29T05:54:53;16.00;99.90
18823;DHT22;9540;51.550;7.980;2022-07-29T05:57:22;16.00;99.90
18823;DHT22;9540;51.550;7.980;2022-07-29T05:59:50;16.10;99.90
18823;DHT22;9540;51.550;7.980;2022-07-29T06:02:18;16.20;99.90
18823;DHT22;9540;51.550;7.980;2022-07-29T06:04:45;16.30;99.90
18823;DHT22;9540;51.550;7.980;2022-07-29T06:07:12;16.40;99.90
18823;DHT22;9540;51.550;7.980;2022-07-29T06:09:39;16.40;99.90
18823;DHT22;9540;51.550;7.980;2022-07-29T06:12:07;16.50;99.90
18823;DHT22;9540;51.550;7.980;2022-07-29T06:14:35;16.70;99.90
18823;DHT22;9540;51.550;7.980;2022-07-29T06:17:03;16.80;99.90
18823;DHT22;9540;51.550;7.980;2022-07-29T06:19:30;16.90;99.90
18823;DHT22;9540;51.550;7.980;2022-07-29T06:21:57;16.90;99.90
18823;DHT22;9540;51.550;7.980;2022-07-29T06:24:24;17.00;99.90
18823;DHT22;9540;51.550;7.980;2022-07-29T06:26:51;17.10;99.90
18823;DHT22;9540;51.550;7.980;2022-07-29T06:29:20;17.20;99.90
18823;DHT22;9540;51.550;7.980;2022-07-29T06:31:47;17.30;99.90
18823;DHT22;9540;51.550;7.980;2022-07-29T06:34:13;17.30;99.90
18823;DHT22;9540;51.550;7.980;2022-07-29T06:36:41;17.50;99.90
18823;DHT22;9540;51.550;7.980;2022-07-29T06:39:08;17.60;99.90
18823;DHT22;9540;51.550;7.980;2022-07-29T06:41:35;17.70;99.90
18823;DHT22;9540;51.550;7.980;2022-07-29T06:44:03;17.80;99.90
18823;DHT22;9540;51.550;7.980;2022-07-29T06:46:31;17.90;99.90
18823;DHT22;9540;51.550;7.980;2022-07-29T06:48:58;18.00;99.90
18823;DHT22;9540;51.550;7.980;2022-07-29T06:51:27;18.10;99.90
18823;DHT22;9540;51.550;7.980;2022-07-29T06:53:54;18.20;99.90
18823;DHT22;9540;51.550;7.980;2022-07-29T06:56:21;18.30;99.90
18823;DHT22;9540;51.550;7.980;2022-07-29T06:58:48;18.30;99.90
18823;DHT22;9540;51.550;7.980;2022-07-29T07:01:15;18.40;99.90
18823;DHT22;9540;51.550;7.980;2022-07-29T07:03:43;18.50;99.90
18823;DHT22;9540;51.550;7.980;2022-07-29T07:06:10;18.60;99.90
18823;DHT22;9540;51.550;7.980;2022-07-29T07:08:37;18.60;99.90
18823;DHT22;9540;51.550;7.980;2022-07-29T07:11:04;18.70;99.90
18823;DHT22;9540;51.550;7.980;2022-07-29T07:13:31;18.80;99.90
18823;DHT22;9540;51.550;7.980;2022-07-29T07:16:00;18.80;99.90
18823;DHT22;9540;51.550;7.980;2022-07-29T07:18:27;18.90;99.90
18823;DHT22;9540;51.550;7.980;2022-07-29T07:20:56;18.90;99.90
18823;DHT22;9540;51.550;7.980;2022-07-29T07:23:24;19.00;99.90
18823;DHT22;9540;51.550;7.980;2022-07-29T07:25:51;19.10;99.90
18823;DHT22;9540;51.550;7.980;2022-07-29T07:28:18;19.30;99.90
18823;DHT22;9540;51.550;7.980;2022-07-29T07:30:46;19.40;99.90
18823;DHT22;9540;51.550;7.980;2022-07-29T07:33:13;19.50;99.90
18823;DHT22;9540;51.550;7.980;2022-07-29T07:35:41;19.50;99.90
18823;DHT22;9540;51.550;7.980;2022-07-29T07:38:09;19.60;99.90
18823;DHT22;9540;51.550;7.980;2022-07-29T07:40:36;19.60;99.90
18823;DHT22;9540;51.550;7.980;2022-07-29T07:43:03;19.60;99.90
18823;DHT22;9540;51.550;7.980;2022-07-29T07:45:30;19.60;99.90
18823;DHT22;9540;51.550;7.980;2022-07-29T07:47:59;19.80;99.90
18823;DHT22;9540;51.550;7.980;2022-07-29T07:50:26;19.90;99.90
18823;DHT22;9540;51.550;7.980;2022-07-29T07:52:54;19.90;99.90
18823;DHT22;9540;51.550;7.980;2022-07-29T07:55:25;19.90;99.90
18823;DHT22;9540;51.550;7.980;2022-07-29T07:57:52;20.00;99.90
18823;DHT22;9540;51.550;7.980;2022-07-29T08:00:20;20.10;99.90
18823;DHT22;9540;51.550;7.980;2022-07-29T08:02:47;20.00;99.90
18823;DHT22;9540;51.550;7.980;2022-07-29T08:05:14;20.00;99.90
18823;DHT22;9540;51.550;7.980;2022-07-29T08:07:44;19.90;99.90
18823;DHT22;9540;51.550;7.980;2022-07-29T08:10:11;19.90;99.90
18823;DHT22;9540;51.550;7.980;2022-07-29T08:12:39;20.10;99.90
18823;DHT22;9540;51.550;7.980;2022-07-29T08:15:08;20.30;99.90
18823;DHT22;9540;51.550;7.980;2022-07-29T08:17:35;20.30;99.90
18823;DHT22;9540;51.550;7.980;2022-07-29T08:20:03;20.20;99.90
18823;DHT22;9540;51.550;7.980;2022-07-29T08:22:30;20.20;99.90
18823;DHT22;9540;51.550;7.980;2022-07-29T08:24:57;20.20;99.90
18823;DHT22;9540;51.550;7.980;2022-07-29T08:27:24;20.20;99.90
18823;DHT22;9540;51.550;7.980;2022-07-29T08:29:53;20.20;99.90
18823;DHT22;9540;51.550;7.980;2022-07-29T08:32:21;20.30;99.90
18823;DHT22;9540;51.550;7.980;2022-07-29T08:34:48;20.40;99.90
18823;DHT22;9540;51.550;7.980;2022-07-29T08:37:15;20.70;99.90
18823;DHT22;9540;51.550;7.980;2022-07-29T08:39:42;20.90;99.90
18823;DHT22;9540;51.550;7.980;2022-07-29T08:42:10;21.30;99.90
18823;DHT22;9540;51.550;7.980;2022-07-29T08:44:38;21.60;99.90
18823;DHT22;9540;51.550;7.980;2022-07-29T08:47:06;22.00;99.90
18823;DHT22;9540;51.550;7.980;2022-07-29T08:49:34;22.40;99.90
18823;DHT22;9540;51.550;7.980;2022-07-29T08:52:02;22.50;99.90
18823;DHT22;9540;51.550;7.980;2022-07-29T08:54:29;22.60;99.90
18823;DHT22;9540;51.550;7.980;2022-07-29T08:56:57;22.70;99.90
18823;DHT22;9540;51.550;7.980;2022-07-29T08:59:26;22.60;99.90
18823;DHT22;9540;51.550;7.980;2022-07-29T09:01:54;22.50;99.90
18823;DHT22;9540;51.550;7.980;2022-07-29T09:04:29;22.50;99.90
18823;DHT22;9540;51.550;7.980;2022-07-29T09:06:57;22.60;99.90
18823;DHT22;9540;51.550;7.980;2022-07-29T09:09:27;22.60;99.90
18823;DHT22;9540;51.550;7.980;2022-07-29T09:11:54;22.60;99.90
18823;DHT22;9540;51.550;7.980;2022-07-29T09:14:21;22.70;99.90
18823;DHT22;9540;51.550;7.980;2022-07-29T09:16:51;22.80;99.90
18823;DHT22;9540;51.550;7.980;2022-07-29T09:19:23;22.90;99.90
18823;DHT22;9540;51.550;7.980;2022-07-29T09:21:52;23.00;99.90
18823;DHT22;9540;51.550;7.980;2022-07-29T09:24:27;23.10;99.90
18823;DHT22;9540;51.550;7.980;2022-07-29T09:26:54;23.00;99.90
18823;DHT22;9540;51.550;7.980;2022-07-29T09:29:23;22.90;99.90
18823;DHT22;9540;51.550;7.980;2022-07-29T09:31:51;22.90;99.90
18823;DHT22;9540;51.550;7.980;2022-07-29T09:34:24;23.00;99.90
18823;DHT22;9540;51.550;7.980;2022-07-29T09:36:54;23.10;99.90
18823;DHT22;9540;51.550;7.980;2022-07-29T09:39:28;23.30;99.90
18823;DHT22;9540;51.550;7.980;2022-07-29T09:41:58;23.20;99.90
18823;DHT22;9540;51.550;7.980;2022-07-29T09:44:26;23.20;99.90
18823;DHT22;9540;51.550;7.980;2022-07-29T09:46:55;23.10;99.90
18823;DHT22;9540;51.550;7.980;2022-07-29T09:49:22;23.20;99.90
18823;DHT22;9540;51.550;7.980;2022-07-29T09:52:01;23.50;99.90
18823;DHT22;9540;51.550;7.980;2022-07-29T09:54:30;23.70;99.90
18823;DHT22;9540;51.550;7.980;2022-07-29T09:57:02;23.50;98.10
18823;DHT22;9540;51.550;7.980;2022-07-29T09:59:30;23.40;98.50
18823;DHT22;9540;51.550;7.980;2022-07-29T10:01:57;23.40;98.90
18823;DHT22;9540;51.550;7.980;2022-07-29T10:04:36;23.50;98.90
18823;DHT22;9540;51.550;7.980;2022-07-29T10:07:06;23.50;98.50
18823;DHT22;9540;51.550;7.980;2022-07-29T10:09:33;23.70;99.50
18823;DHT22;9540;51.550;7.980;2022-07-29T10:12:09;23.90;99.80
18823;DHT22;9540;51.550;7.980;2022-07-29T10:14:37;24.00;98.30
18823;DHT22;9540;51.550;7.980;2022-07-29T10:17:05;24.20;98.50
18823;DHT22;9540;51.550;7.980;2022-07-29T10:19:34;24.30;98.30
18823;DHT22;9540;51.550;7.980;2022-07-29T10:22:03;24.20;97.70
18823;DHT22;9540;51.550;7.980;2022-07-29T10:24:32;24.30;96.90
18823;DHT22;9540;51.550;7.980;2022-07-29T10:27:02;24.50;97.30
18823;DHT22;9540;51.550;7.980;2022-07-29T10:29:29;24.80;94.80
18823;DHT22;9540;51.550;7.980;2022-07-29T10:32:23;24.80;95.30
18823;DHT22;9540;51.550;7.980;2022-07-29T10:35:19;24.90;94.40
18823;DHT22;9540;51.550;7.980;2022-07-29T10:38:10;24.90;93.00
18823;DHT22;9540;51.550;7.980;2022-07-29T10:40:49;24.60;92.80
18823;DHT22;9540;51.550;7.980;2022-07-29T10:43:37;24.80;93.10
18823;DHT22;9540;51.550;7.980;2022-07-29T10:46:08;24.70;92.60
18823;DHT22;9540;51.550;7.980;2022-07-29T10:48:35;24.50;93.40
18823;DHT22;9540;51.550;7.980;2022-07-29T10:51:04;24.60;92.80
18823;DHT22;9540;51.550;7.980;2022-07-29T10:53:47;24.70;91.80
18823;DHT22;9540;51.550;7.980;2022-07-29T10:56:26;24.70;92.40
18823;DHT22;9540;51.550;7.980;2022-07-29T10:59:23;24.70;93.30
18823;DHT22;9540;51.550;7.980;2022-07-29T11:01:52;24.60;92.40
18823;DHT22;9540;51.550;7.980;2022-07-29T11:07:20;24.90;93.10
18823;DHT22;9540;51.550;7.980;2022-07-29T11:10:21;25.20;92.00
18823;DHT22;9540;51.550;7.980;2022-07-29T11:12:49;25.30;92.50
18823;DHT22;9540;51.550;7.980;2022-07-29T11:15:19;25.60;92.60
18823;DHT22;9540;51.550;7.980;2022-07-29T11:18:08;25.70;92.10
18823;DHT22;9540;51.550;7.980;2022-07-29T11:20:37;25.70;92.80
18823;DHT22;9540;51.550;7.980;2022-07-29T11:23:18;25.60;91.40
18823;DHT22;9540;51.550;7.980;2022-07-29T11:25:45;25.50;91.00
18823;DHT22;9540;51.550;7.980;2022-07-29T11:28:18;25.60;91.50
18823;DHT22;9540;51.550;7.980;2022-07-29T11:30:49;25.40;91.90
18823;DHT22;9540;51.550;7.980;2022-07-29T11:33:37;25.40;92.80
18823;DHT22;9540;51.550;7.980;2022-07-29T11:36:09;25.40;92.40
18823;DHT22;9540;51.550;7.980;2022-07-29T11:38:37;25.60;91.50
18823;DHT22;9540;51.550;7.980;2022-07-29T11:41:23;25.60;91.00
18823;DHT22;9540;51.550;7.980;2022-07-29T11:43:53;25.50;92.10
18823;DHT22;9540;51.550;7.980;2022-07-29T11:46:46;25.60;90.90
18823;DHT22;9540;51.550;7.980;2022-07-29T11:49:19;25.40;91.90
18823;DHT22;9540;51.550;7.980;2022-07-29T11:51:50;25.40;91.50
18823;DHT22;9540;51.550;7.980;2022-07-29T11:54:24;25.40;91.80
18823;DHT22;9540;51.550;7.980;2022-07-29T11:56:52;25.30;91.90
18823;DHT22;9540;51.550;7.980;2022-07-29T11:59:21;25.30;92.60
18823;DHT22;9540;51.550;7.980;2022-07-29T12:01:54;25.30;92.20
18823;DHT22;9540;51.550;7.980;2022-07-29T12:04:21;25.20;92.50
18823;DHT22;9540;51.550;7.980;2022-07-29T12:06:49;25.20;91.70
18823;DHT22;9540;51.550;7.980;2022-07-29T12:09:17;25.00;92.10
18823;DHT22;9540;51.550;7.980;2022-07-29T12:11:45;24.70;94.40
18823;DHT22;9540;51.550;7.980;2022-07-29T12:14:26;24.50;95.30
18823;DHT22;9540;51.550;7.980;2022-07-29T12:16:53;24.60;95.20
18823;DHT22;9540;51.550;7.980;2022-07-29T12:19:20;24.50;95.30
18823;DHT22;9540;51.550;7.980;2022-07-29T12:21:49;24.50;96.20
18823;DHT22;9540;51.550;7.980;2022-07-29T12:24:17;24.50;97.00
18823;DHT22;9540;51.550;7.980;2022-07-29T12:26:51;24.50;97.50
18823;DHT22;9540;51.550;7.980;2022-07-29T12:29:18;24.50;98.30
18823;DHT22;9540;51.550;7.980;2022-07-29T12:31:50;24.50;98.80
18823;DHT22;9540;51.550;7.980;2022-07-29T12:34:20;24.40;99.30
18823;DHT22;9540;51.550;7.980;2022-07-29T12:36:49;24.30;99.40
18823;DHT22;9540;51.550;7.980;2022-07-29T12:39:17;24.20;99.90
18823;DHT22;9540;51.550;7.980;2022-07-29T12:41:44;24.10;99.90
18823;DHT22;9540;51.550;7.980;2022-07-29T12:44:11;24.10;99.90
18823;DHT22;9540;51.550;7.980;2022-07-29T12:46:38;24.10;99.90
18823;DHT22;9540;51.550;7.980;2022-07-29T12:49:07;24.10;99.90
18823;DHT22;9540;51.550;7.980;2022-07-29T12:51:37;24.10;99.90
18823;DHT22;9540;51.550;7.980;2022-07-29T12:54:06;24.10;99.90
18823;DHT22;9540;51.550;7.980;2022-07-29T12:56:36;24.00;99.90
18823;DHT22;9540;51.550;7.980;2022-07-29T12:59:12;23.80;99.90
18823;DHT22;9540;51.550;7.980;2022-07-29T13:01:39;23.70;99.90
18823;DHT22;9540;51.550;7.980;2022-07-29T13:04:07;23.70;99.90
18823;DHT22;9540;51.550;7.980;2022-07-29T13:06:39;23.60;99.90
18823;DHT22;9540;51.550;7.980;2022-07-29T13:09:09;23.60;99.90
18823;DHT22;9540;51.550;7.980;2022-07-29T13:11:38;23.70;99.90
18823;DHT22;9540;51.550;7.980;2022-07-29T13:14:07;23.70;99.90
18823;DHT22;9540;51.550;7.980;2022-07-29T13:16:35;23.70;99.90
18823;DHT22;9540;51.550;7.980;2022-07-29T13:19:09;23.60;99.90
18823;DHT22;9540;51.550;7.980;2022-07-29T13:21:38;23.70;99.90
18823;DHT22;9540;51.550;7.980;2022-07-29T13:24:06;23.70;99.90
18823;DHT22;9540;51.550;7.980;2022-07-29T13:26:34;23.80;99.90
18823;DHT22;9540;51.550;7.980;2022-07-29T13:29:01;23.90;99.90
18823;DHT22;9540;51.550;7.980;2022-07-29T13:31:28;24.00;99.90
18823;DHT22;9540;51.550;7.980;2022-07-29T13:33:55;23.90;99.90
18823;DHT22;9540;51.550;7.980;2022-07-29T13:36:24;23.90;99.90
18823;DHT22;9540;51.550;7.980;2022-07-29T13:38:52;23.90;99.90
18823;DHT22;9540;51.550;7.980;2022-07-29T13:41:19;23.90;99.90
18823;DHT22;9540;51.550;7.980;2022-07-29T13:43:46;23.70;99.90
18823;DHT22;9540;51.550;7.980;2022-07-29T13:46:13;23.70;99.90
18823;DHT22;9540;51.550;7.980;2022-07-29T13:48:40;23.70;99.90
18823;DHT22;9540;51.550;7.980;2022-07-29T13:51:07;23.60;99.90
18823;DHT22;9540;51.550;7.980;2022-07-29T13:53:36;23.60;99.90
18823;DHT22;9540;51.550;7.980;2022-07-29T13:56:03;23.70;99.90
18823;DHT22;9540;51.550;7.980;2022-07-29T13:58:31;23.70;99.90
18823;DHT22;9540;51.550;7.980;2022-07-29T14:00:59;23.70;99.90
18823;DHT22;9540;51.550;7.980;2022-07-29T14:03:26;23.80;99.90
18823;DHT22;9540;51.550;7.980;2022-07-29T14:05:53;24.10;99.90
18823;DHT22;9540;51.550;7.980;2022-07-29T14:08:21;24.20;99.90
18823;DHT22;9540;51.550;7.980;2022-07-29T14:10:50;24.30;99.90
18823;DHT22;9540;51.550;7.980;2022-07-29T14:13:17;24.50;99.90
18823;DHT22;9540;51.550;7.980;2022-07-29T14:15:44;24.70;99.90
18823;DHT22;9540;51.550;7.980;2022-07-29T14:18:11;24.90;99.90
18823;DHT22;9540;51.550;7.980;2022-07-29T14:20:38;25.10;99.90
18823;DHT22;9540;51.550;7.980;2022-07-29T14:23:05;25.00;99.90
18823;DHT22;9540;51.550;7.980;2022-07-29T14:25:32;24.90;99.90
18823;DHT22;9540;51.550;7.980;2022-07-29T14:28:00;24.70;99.90
18823;DHT22;9540;51.550;7.980;2022-07-29T14:30:27;24.70;99.90
18823;DHT22;9540;51.550;7.980;2022-07-29T14:32:54;24.60;99.90
18823;DHT22;9540;51.550;7.980;2022-07-29T14:35:21;24.30;99.90
18823;DHT22;9540;51.550;7.980;2022-07-29T14:37:48;24.20;99.90
18823;DHT22;9540;51.550;7.980;2022-07-29T14:40:15;24.00;99.90
18823;DHT22;9540;51.550;7.980;2022-07-29T14:42:42;23.80;99.90
18823;DHT22;9540;51.550;7.980;2022-07-29T14:45:10;23.70;99.90
18823;DHT22;9540;51.550;7.980;2022-07-29T14:47:38;23.70;99.90
18823;DHT22;9540;51.550;7.980;2022-07-29T14:50:07;23.60;99.90
18823;DHT22;9540;51.550;7.980;2022-07-29T14:52:34;23.60;99.90
18823;DHT22;9540;51.550;7.980;2022-07-29T14:55:02;23.50;99.90
18823;DHT22;9540;51.550;7.980;2022-07-29T14:57:29;23.40;99.90
18823;DHT22;9540;51.550;7.980;2022-07-29T14:59:56;23.30;99.90
18823;DHT22;9540;51.550;7.980;2022-07-29T15:02:24;23.20;99.90
18823;DHT22;9540;51.550;7.980;2022-07-29T15:04:51;23.00;99.90
18823;DHT22;9540;51.550;7.980;2022-07-29T15:07:18;22.90;99.90
18823;DHT22;9540;51.550;7.980;2022-07-29T15:09:45;22.90;99.90
18823;DHT22;9540;51.550;7.980;2022-07-29T15:12:12;22.80;99.90
18823;DHT22;9540;51.550;7.980;2022-07-29T15:14:39;23.00;99.90
18823;DHT22;9540;51.550;7.980;2022-07-29T15:17:06;23.10;99.90
18823;DHT22;9540;51.550;7.980;2022-07-29T15:19:34;23.10;99.90
18823;DHT22;9540;51.550;7.980;2022-07-29T15:22:01;23.20;99.90
18823;DHT22;9540;51.550;7.980;2022-07-29T15:24:30;23.40;99.90
18823;DHT22;9540;51.550;7.980;2022-07-29T15:26:57;23.50;99.90
18823;DHT22;9540;51.550;7.980;2022-07-29T15:29:24;23.40;99.90
18823;DHT22;9540;51.550;7.980;2022-07-29T15:31:51;23.50;99.90
18823;DHT22;9540;51.550;7.980;2022-07-29T15:34:18;23.50;99.90
18823;DHT22;9540;51.550;7.980;2022-07-29T15:36:50;23.60;99.90
18823;DHT22;9540;51.550;7.980;2022-07-29T15:39:18;23.50;99.90
18823;DHT22;9540;51.550;7.980;2022-07-29T15:41:45;23.70;99.90
18823;DHT22;9540;51.550;7.980;2022-07-29T15:44:12;23.90;99.90
18823;DHT22;9540;51.550;7.980;2022-07-29T15:46:39;23.90;99.90
18823;DHT22;9540;51.550;7.980;2022-07-29T15:49:24;23.90;99.90
18823;DHT22;9540;51.550;7.980;2022-07-29T15:51:58;23.90;99.90
18823;DHT22;9540;51.550;7.980;2022-07-29T15:54:25;24.00;99.90
18823;DHT22;9540;51.550;7.980;2022-07-29T15:56:52;24.10;99.90
18823;DHT22;9540;51.550;7.980;2022-07-29T15:59:19;24.40;99.90
18823;DHT22;9540;51.550;7.980;2022-07-29T16:01:46;24.60;99.90
18823;DHT22;9540;51.550;7.980;2022-07-29T16:04:13;24.80;99.90
18823;DHT22;9540;51.550;7.980;2022-07-29T16:06:40;24.90;99.90